Time;durP1;ratioP1;P1;durP2;ratioP2;P2;SDS_P1;SDS_P2;PMS_P1;PMS_P2;Temp;Humidity;BMP_temperature;BMP_pressure;BME280_temperature;BME280_humidity;BME280_pressure;Samples;Min_cycle;Max_cycle;Signal;HPM_P1;HPM_P2
2023/12/20 00:01:17;;;;;;;3.30;2.57;;;3.50;99.90;;;;;;5031528;28;20167;-86
2023/12/20 00:03:42;;;;;;;3.20;2.50;;;3.60;99.90;;;;;;5032381;28;20296;-86
2023/12/20 00:06:08;;;;;;;3.60;2.87;;;3.60;99.90;;;;;;5032649;28;20178;-86
2023/12/20 00:08:34;;;;;;;2.57;2.37;;;3.60;99.90;;;;;;5034650;28;20194;-86
2023/12/20 00:10:59;;;;;;;2.57;2.33;;;3.60;99.90;;;;;;5036167;28;20213;-87
2023/12/20 00:13:25;;;;;;;2.60;2.20;;;3.70;99.90;;;;;;5035934;28;20209;-86
2023/12/20 00:15:50;;;;;;;3.03;2.50;;;3.60;99.90;;;;;;5034698;28;20174;-86
2023/12/20 00:18:16;;;;;;;2.80;2.43;;;3.70;99.90;;;;;;5035860;28;20202;-86
2023/12/20 00:20:41;;;;;;;2.93;2.30;;;3.70;99.90;;;;;;5035624;28;20178;-86
2023/12/20 00:23:07;;;;;;;2.90;2.10;;;3.70;99.90;;;;;;5034122;28;20207;-86
2023/12/20 00:25:34;;;;;;;2.40;2.20;;;3.70;99.90;;;;;;5034461;28;20166;-86
2023/12/20 00:28:00;;;;;;;2.43;2.17;;;3.70;99.90;;;;;;5034289;28;20174;-87
2023/12/20 00:30:25;;;;;;;3.07;2.20;;;3.70;99.90;;;;;;5034212;28;20208;-87
2023/12/20 00:32:51;;;;;;;2.53;2.20;;;3.80;99.90;;;;;;5034433;28;20178;-86
2023/12/20 00:35:16;;;;;;;2.27;2.07;;;3.70;99.90;;;;;;5035425;28;20201;-86
2023/12/20 00:37:45;;;;;;;2.40;2.20;;;3.80;99.90;;;;;;5034142;28;20187;-86
2023/12/20 00:40:11;;;;;;;2.33;2.00;;;3.80;99.90;;;;;;5033807;28;20218;-86
2023/12/20 00:42:37;;;;;;;3.13;2.13;;;3.80;99.90;;;;;;5034090;28;20259;-87
2023/12/20 00:45:04;;;;;;;2.10;1.90;;;3.80;99.90;;;;;;5035577;28;20170;-86
2023/12/20 00:47:30;;;;;;;2.17;1.97;;;3.80;99.90;;;;;;5033888;28;20257;-86
2023/12/20 00:49:56;;;;;;;2.80;2.20;;;3.80;99.90;;;;;;5033839;28;20698;-86
2023/12/20 00:52:22;;;;;;;2.57;2.30;;;3.80;99.90;;;;;;5033793;28;20209;-86
2023/12/20 00:54:48;;;;;;;2.90;2.30;;;3.80;99.90;;;;;;5033800;28;20175;-86
2023/12/20 00:57:14;;;;;;;2.27;2.07;;;3.80;99.90;;;;;;5033943;28;20177;-86
2023/12/20 00:59:39;;;;;;;2.50;2.30;;;3.80;99.90;;;;;;5034955;28;20194;-86
2023/12/20 01:02:05;;;;;;;2.93;2.43;;;3.80;99.90;;;;;;5033850;28;20581;-86
2023/12/20 01:04:30;;;;;;;2.47;2.10;;;3.80;99.90;;;;;;5034868;28;20175;-86
2023/12/20 01:06:56;;;;;;;2.60;2.20;;;3.80;99.90;;;;;;5033775;28;20262;-86
2023/12/20 01:09:26;;;;;;;2.40;2.10;;;3.90;99.90;;;;;;5034705;28;20251;-86
2023/12/20 01:11:52;;;;;;;2.47;2.00;;;3.90;99.90;;;;;;5033671;28;20176;-87
2023/12/20 01:14:18;;;;;;;2.83;2.37;;;3.80;99.90;;;;;;5034671;28;20292;-86
2023/12/20 01:16:44;;;;;;;2.87;2.40;;;3.80;99.90;;;;;;5033600;28;20652;-86
2023/12/20 01:19:09;;;;;;;2.20;2.00;;;3.90;99.90;;;;;;5033280;28;20203;-86
2023/12/20 01:21:35;;;;;;;2.30;2.10;;;3.80;99.90;;;;;;5034555;28;20175;-86
2023/12/20 01:24:01;;;;;;;2.37;2.17;;;3.90;99.90;;;;;;5034681;28;20182;-86
2023/12/20 01:26:26;;;;;;;3.27;2.30;;;3.90;99.90;;;;;;5033733;28;20179;-86
2023/12/20 01:28:52;;;;;;;2.90;2.50;;;3.90;99.90;;;;;;5034523;28;20220;-86
2023/12/20 01:31:17;;;;;;;2.60;2.30;;;3.90;99.90;;;;;;5034241;28;20174;-87
2023/12/20 01:33:43;;;;;;;2.83;2.50;;;3.90;99.90;;;;;;5033132;28;20221;-86
2023/12/20 01:36:08;;;;;;;2.93;2.40;;;3.90;99.90;;;;;;5034344;28;20265;-86
2023/12/20 01:38:34;;;;;;;2.73;2.37;;;3.80;99.90;;;;;;5034360;28;20210;-86
2023/12/20 01:41:00;;;;;;;2.80;2.23;;;3.90;99.90;;;;;;5034150;28;20197;-86
2023/12/20 01:43:25;;;;;;;2.47;2.20;;;3.90;99.90;;;;;;5032703;28;20739;-86
2023/12/20 01:45:51;;;;;;;3.03;2.67;;;3.90;99.90;;;;;;5033261;28;20171;-86
2023/12/20 01:48:19;;;;;;;2.87;2.43;;;3.90;99.90;;;;;;5034041;28;20191;-86
2023/12/20 01:50:45;;;;;;;2.77;2.43;;;3.90;99.90;;;;;;5034239;28;20179;-87
2023/12/20 01:53:12;;;;;;;2.87;2.30;;;3.90;99.90;;;;;;5034696;28;20185;-86
2023/12/20 01:55:40;;;;;;;2.73;2.47;;;3.90;99.90;;;;;;5034184;28;20179;-86
2023/12/20 01:58:07;;;;;;;2.50;2.17;;;3.90;99.90;;;;;;5032608;28;20209;-86
2023/12/20 02:00:33;;;;;;;3.03;2.33;;;3.90;99.90;;;;;;5033839;28;20550;-86
2023/12/20 02:03:01;;;;;;;2.50;2.30;;;3.90;99.90;;;;;;5032441;28;20198;-86
2023/12/20 02:05:27;;;;;;;2.90;2.37;;;4.00;99.90;;;;;;5032886;28;20177;-86
2023/12/20 02:07:53;;;;;;;2.90;2.47;;;4.00;99.90;;;;;;5034146;28;20258;-87
2023/12/20 02:10:19;;;;;;;2.53;2.30;;;4.00;99.90;;;;;;5033801;28;20255;-86
2023/12/20 02:12:44;;;;;;;3.17;2.10;;;4.00;99.90;;;;;;5033612;28;20614;-86
2023/12/20 02:15:10;;;;;;;2.70;2.20;;;4.00;99.90;;;;;;5033783;28;20202;-86
2023/12/20 02:17:37;;;;;;;3.13;2.30;;;4.00;99.90;;;;;;5032456;28;20172;-86
2023/12/20 02:20:03;;;;;;;3.23;2.60;;;4.00;99.90;;;;;;5031918;28;20195;-86
2023/12/20 02:22:29;;;;;;;2.20;2.00;;;4.00;99.90;;;;;;5033794;28;20283;-86
2023/12/20 02:24:55;;;;;;;3.10;2.40;;;4.00;99.90;;;;;;5034089;28;20205;-86
2023/12/20 02:27:22;;;;;;;2.67;2.47;;;4.00;99.90;;;;;;5033646;28;20275;-87
2023/12/20 02:29:49;;;;;;;2.53;2.33;;;4.00;99.90;;;;;;5032217;28;20199;-86
2023/12/20 02:32:15;;;;;;;3.27;2.60;;;3.90;99.90;;;;;;5033109;28;20711;-86
2023/12/20 02:34:41;;;;;;;2.80;2.40;;;4.00;99.90;;;;;;5031960;28;20238;-86
2023/12/20 02:37:06;;;;;;;2.90;2.60;;;3.90;99.90;;;;;;5033416;28;20179;-86
2023/12/20 02:39:33;;;;;;;2.90;2.60;;;3.90;99.90;;;;;;5098172;22;20326;-83
2023/12/20 02:41:58;;;;;;;3.20;2.67;;;4.00;99.90;;;;;;5052788;28;20201;-84
2023/12/20 02:44:24;;;;;;;3.27;2.70;;;4.00;99.90;;;;;;5051768;28;20170;-84
2023/12/20 02:46:50;;;;;;;2.80;2.50;;;4.00;99.90;;;;;;5051340;28;20171;-84
2023/12/20 02:49:15;;;;;;;2.90;2.50;;;4.00;99.90;;;;;;5051720;28;20196;-85
2023/12/20 02:51:41;;;;;;;3.20;2.90;;;4.00;99.90;;;;;;5051112;28;20170;-83
2023/12/20 02:54:06;;;;;;;3.93;2.90;;;4.00;99.90;;;;;;5052571;28;20170;-83
2023/12/20 02:56:33;;;;;;;3.80;2.97;;;4.00;99.90;;;;;;5051567;28;20177;-84
2023/12/20 02:58:58;;;;;;;5.03;3.20;;;4.00;99.90;;;;;;5051176;28;20663;-84
2023/12/20 03:01:24;;;;;;;3.50;2.70;;;4.00;99.90;;;;;;5051081;28;20167;-84
2023/12/20 03:03:50;;;;;;;4.27;3.17;;;4.00;99.90;;;;;;5052484;28;20208;-84
2023/12/20 03:06:19;;;;;;;3.20;2.90;;;4.00;99.90;;;;;;5051293;28;20177;-83
2023/12/20 03:08:45;;;;;;;4.10;3.23;;;4.00;99.90;;;;;;5051127;28;20190;-84
2023/12/20 03:11:11;;;;;;;3.67;3.07;;;4.00;99.90;;;;;;5051242;28;20175;-84
2023/12/20 03:13:36;;;;;;;3.93;3.10;;;4.10;99.90;;;;;;5052482;28;20220;-84
2023/12/20 03:16:11;;;;;;;4.57;3.60;;;4.10;99.90;;;;;;5050956;28;20177;-84
2023/12/20 03:18:37;;;;;;;4.03;3.57;;;4.00;99.90;;;;;;5050954;28;20570;-83
2023/12/20 03:21:04;;;;;;;3.93;3.53;;;4.00;99.90;;;;;;5050966;28;20666;-83
2023/12/20 03:23:30;;;;;;;4.13;3.40;;;4.00;99.90;;;;;;5052066;28;20199;-84
2023/12/20 03:25:56;;;;;;;4.63;3.47;;;4.00;99.90;;;;;;5050886;28;20663;-83
2023/12/20 03:28:22;;;;;;;5.77;3.60;;;4.10;99.90;;;;;;5052021;28;20201;-83
2023/12/20 03:30:48;;;;;;;4.67;3.57;;;4.10;99.90;;;;;;5050916;28;20168;-84
2023/12/20 03:33:14;;;;;;;4.03;3.50;;;4.10;99.90;;;;;;5051047;28;20320;-84
2023/12/20 03:35:39;;;;;;;4.77;3.80;;;4.20;99.90;;;;;;5050814;28;20179;-84
2023/12/20 03:38:05;;;;;;;4.03;3.40;;;4.20;99.90;;;;;;5052085;28;20165;-84
2023/12/20 03:40:30;;;;;;;4.00;3.60;;;4.20;99.90;;;;;;5051564;28;20214;-84
2023/12/20 03:42:56;;;;;;;4.80;3.70;;;4.20;99.90;;;;;;5054637;28;20260;-83
2023/12/20 03:45:21;;;;;;;4.13;3.70;;;4.20;99.90;;;;;;5055368;28;20170;-84
2023/12/20 03:47:47;;;;;;;4.17;3.40;;;4.20;99.90;;;;;;5056219;28;20270;-84
2023/12/20 03:50:13;;;;;;;4.57;3.87;;;4.30;99.90;;;;;;5054539;28;20247;-85
2023/12/20 03:52:38;;;;;;;5.90;3.90;;;4.30;99.90;;;;;;5054868;28;20181;-84
2023/12/20 03:55:05;;;;;;;4.70;3.93;;;4.30;99.90;;;;;;5055960;28;20186;-84
2023/12/20 03:57:31;;;;;;;5.27;4.07;;;4.30;99.90;;;;;;5056114;28;20434;-83
2023/12/20 03:59:56;;;;;;;4.90;4.00;;;4.30;99.90;;;;;;5055590;28;20557;-84
2023/12/20 04:02:22;;;;;;;5.50;4.37;;;4.20;99.90;;;;;;5055594;28;20285;-84
2023/12/20 04:04:47;;;;;;;6.37;4.60;;;4.30;99.90;;;;;;5056020;28;20207;-84
2023/12/20 04:07:13;;;;;;;6.00;4.70;;;4.20;99.90;;;;;;5054669;28;20176;-84
2023/12/20 04:09:41;;;;;;;5.00;4.40;;;4.20;99.90;;;;;;5055225;28;20228;-84
2023/12/20 04:12:06;;;;;;;6.27;4.40;;;4.20;99.90;;;;;;5055547;28;20189;-83
2023/12/20 04:14:32;;;;;;;6.37;4.83;;;4.20;99.90;;;;;;5055732;28;20178;-84
2023/12/20 04:16:58;;;;;;;6.07;4.43;;;4.20;99.90;;;;;;5054358;28;20596;-85
2023/12/20 04:19:23;;;;;;;7.50;4.73;;;4.20;99.90;;;;;;5055358;28;20199;-84
2023/12/20 04:21:49;;;;;;;6.87;4.73;;;4.20;99.90;;;;;;5055361;28;20360;-83
2023/12/20 04:24:14;;;;;;;5.70;4.53;;;4.20;99.90;;;;;;5055347;28;20167;-84
2023/12/20 04:26:40;;;;;;;4.73;3.93;;;4.20;99.90;;;;;;5054029;28;20174;-83
2023/12/20 04:29:05;;;;;;;4.63;3.80;;;4.20;99.90;;;;;;5055102;28;20193;-84
2023/12/20 04:31:31;;;;;;;3.93;3.00;;;4.20;99.90;;;;;;5053858;28;20166;-83
2023/12/20 04:33:56;;;;;;;4.10;3.40;;;4.30;99.90;;;;;;5055348;28;20178;-83
2023/12/20 04:36:22;;;;;;;3.90;2.97;;;4.40;99.90;;;;;;5053905;28;20177;-83
2023/12/20 04:38:48;;;;;;;4.23;2.90;;;4.40;99.90;;;;;;5055382;28;20220;-83
2023/12/20 04:41:18;;;;;;;3.77;2.83;;;4.50;99.90;;;;;;5054822;28;20212;-83
2023/12/20 04:43:44;;;;;;;2.90;2.60;;;4.40;99.90;;;;;;5054883;28;20577;-84
2023/12/20 04:46:09;;;;;;;2.63;2.20;;;4.40;99.90;;;;;;5055220;28;20175;-84
2023/12/20 04:48:35;;;;;;;3.43;2.20;;;4.40;99.90;;;;;;5053588;28;20193;-83
2023/12/20 04:51:01;;;;;;;2.90;2.20;;;4.40;99.90;;;;;;5053493;28;20173;-85
2023/12/20 04:53:27;;;;;;;2.50;2.20;;;4.50;99.90;;;;;;5053980;28;20187;-84
2023/12/20 04:55:53;;;;;;;2.63;2.20;;;4.40;99.90;;;;;;5054794;28;20216;-84
2023/12/20 04:58:19;;;;;;;3.00;2.70;;;4.30;99.90;;;;;;5054880;28;20553;-84
2023/12/20 05:00:44;;;;;;;3.17;2.53;;;4.30;99.90;;;;;;5054592;28;20184;-84
2023/12/20 05:03:10;;;;;;;2.63;2.37;;;4.30;99.90;;;;;;5053506;28;20202;-84
2023/12/20 05:05:35;;;;;;;2.80;2.47;;;4.20;99.90;;;;;;5054449;28;20189;-84
2023/12/20 05:08:01;;;;;;;3.27;2.30;;;4.30;99.90;;;;;;5053250;28;20295;-84
2023/12/20 05:10:27;;;;;;;3.20;2.60;;;4.30;99.90;;;;;;5053266;28;20621;-84
2023/12/20 05:12:53;;;;;;;2.67;2.47;;;4.30;99.90;;;;;;5053552;28;20187;-84
2023/12/20 05:15:19;;;;;;;3.00;2.70;;;4.30;99.90;;;;;;5055236;28;20175;-84
2023/12/20 05:17:44;;;;;;;2.97;2.37;;;4.40;99.90;;;;;;5054164;28;20174;-84
2023/12/20 05:20:10;;;;;;;4.17;2.57;;;4.40;99.90;;;;;;5053723;28;20196;-84
2023/12/20 05:22:36;;;;;;;3.50;2.90;;;4.40;99.90;;;;;;5053740;28;20205;-85
2023/12/20 05:25:01;;;;;;;3.00;2.57;;;4.40;99.90;;;;;;5053587;28;20176;-84
2023/12/20 05:27:27;;;;;;;3.17;2.83;;;4.40;99.90;;;;;;5053925;28;20198;-84
2023/12/20 05:29:53;;;;;;;3.20;2.70;;;4.30;99.90;;;;;;5054562;28;20205;-82
2023/12/20 05:32:18;;;;;;;4.27;2.93;;;4.30;99.90;;;;;;5053097;28;20185;-84
2023/12/20 05:34:44;;;;;;;3.37;2.93;;;4.50;99.90;;;;;;5052879;28;20602;-85
2023/12/20 05:37:09;;;;;;;3.40;2.57;;;4.60;99.90;;;;;;5052697;28;20225;-84
2023/12/20 05:39:35;;;;;;;4.20;2.73;;;4.70;99.90;;;;;;5053445;28;20218;-84
2023/12/20 05:42:00;;;;;;;8.60;6.97;;;4.80;99.90;;;;;;5054077;28;20183;-84
2023/12/20 05:44:26;;;;;;;3.03;2.67;;;5.00;99.90;;;;;;5052415;28;20176;-85
2023/12/20 05:46:51;;;;;;;3.33;2.57;;;4.80;99.90;;;;;;5054381;28;20179;-84
2023/12/20 05:49:17;;;;;;;3.70;2.93;;;4.50;99.90;;;;;;5052293;28;20239;-84
2023/12/20 05:51:42;;;;;;;4.17;2.60;;;4.30;99.90;;;;;;5053106;28;20215;-84
2023/12/20 05:54:09;;;;;;;3.20;2.60;;;4.20;99.90;;;;;;5053223;28;20170;-84
2023/12/20 05:56:35;;;;;;;3.77;2.40;;;4.10;99.90;;;;;;5053498;28;20190;-85
2023/12/20 05:59:00;;;;;;;3.70;2.60;;;4.00;99.90;;;;;;5051434;28;20211;-85
2023/12/20 06:01:26;;;;;;;4.90;4.10;;;4.00;99.90;;;;;;5053521;28;20207;-84
2023/12/20 06:03:51;;;;;;;7.07;4.90;;;3.90;99.90;;;;;;5053270;28;20215;-84
2023/12/20 06:06:17;;;;;;;3.83;3.30;;;3.90;99.90;;;;;;5053322;28;20247;-85
2023/12/20 06:08:43;;;;;;;3.27;2.80;;;3.90;99.90;;;;;;5052013;28;20213;-84
2023/12/20 06:11:09;;;;;;;6.17;3.60;;;3.90;99.90;;;;;;5051653;28;20203;-84
2023/12/20 06:13:35;;;;;;;7.97;3.63;;;4.00;99.90;;;;;;5053506;28;20179;-84
2023/12/20 06:16:01;;;;;;;6.33;3.43;;;4.00;99.90;;;;;;5052158;28;20181;-84
2023/12/20 06:18:26;;;;;;;5.07;3.37;;;4.00;99.90;;;;;;5053622;28;20251;-84
2023/12/20 06:20:52;;;;;;;5.60;3.50;;;4.00;99.90;;;;;;5051740;28;20564;-84
2023/12/20 06:23:17;;;;;;;4.30;3.30;;;4.00;99.90;;;;;;5052969;28;20200;-85
2023/12/20 06:25:44;;;;;;;4.80;3.70;;;4.00;99.90;;;;;;5052781;28;20202;-85
2023/12/20 06:28:10;;;;;;;4.93;3.70;;;4.00;99.90;;;;;;5052851;28;20177;-85
2023/12/20 06:30:36;;;;;;;4.27;2.90;;;4.00;99.90;;;;;;5051307;28;20192;-85
2023/12/20 06:33:01;;;;;;;5.97;5.00;;;3.90;99.90;;;;;;5051612;28;20174;-84
2023/12/20 06:35:27;;;;;;;4.47;3.50;;;4.00;99.90;;;;;;5051647;28;20228;-84
2023/12/20 06:37:52;;;;;;;4.37;3.33;;;3.90;99.90;;;;;;5053175;28;20760;-84
2023/12/20 06:40:18;;;;;;;4.17;3.07;;;3.90;99.90;;;;;;5052589;28;20210;-84
2023/12/20 06:42:44;;;;;;;5.10;3.27;;;3.90;99.90;;;;;;5051317;28;20235;-84
2023/12/20 06:45:10;;;;;;;5.77;3.33;;;3.90;99.90;;;;;;5052858;28;20208;-84
2023/12/20 06:47:35;;;;;;;4.20;3.80;;;3.80;99.90;;;;;;5051466;28;20182;-84
2023/12/20 06:50:01;;;;;;;7.00;3.67;;;3.80;99.90;;;;;;5052229;28;20193;-85
2023/12/20 06:52:27;;;;;;;4.23;3.53;;;3.80;99.90;;;;;;5051064;28;20179;-85
2023/12/20 06:54:52;;;;;;;5.83;3.20;;;3.80;99.90;;;;;;5051293;28;20174;-84
2023/12/20 06:57:19;;;;;;;5.40;3.27;;;3.80;99.90;;;;;;5051459;28;20179;-85
2023/12/20 06:59:45;;;;;;;3.57;3.20;;;3.80;99.90;;;;;;5051072;28;20195;-84
2023/12/20 07:02:11;;;;;;;5.43;3.30;;;3.80;99.90;;;;;;5051285;28;20252;-83
2023/12/20 07:04:40;;;;;;;4.27;3.03;;;3.80;99.90;;;;;;5052546;28;20170;-83
2023/12/20 07:07:07;;;;;;;4.13;3.23;;;3.80;99.90;;;;;;5052501;28;20175;-83
2023/12/20 07:09:33;;;;;;;4.07;3.10;;;3.80;99.90;;;;;;5051021;28;20199;-83
2023/12/20 07:11:58;;;;;;;4.53;3.20;;;3.80;99.90;;;;;;5052495;28;20165;-84
2023/12/20 07:14:24;;;;;;;4.70;2.80;;;3.80;99.90;;;;;;5052121;28;20171;-84
2023/12/20 07:16:49;;;;;;;4.33;3.20;;;3.80;99.90;;;;;;5050547;28;20200;-84
2023/12/20 07:19:15;;;;;;;4.43;3.20;;;3.80;99.90;;;;;;5050744;28;20196;-84
2023/12/20 07:21:41;;;;;;;5.33;3.00;;;3.80;99.90;;;;;;5051400;28;20178;-83
2023/12/20 07:24:06;;;;;;;4.27;3.23;;;3.80;99.90;;;;;;5052286;28;20214;-83
2023/12/20 07:26:32;;;;;;;6.27;3.17;;;3.80;99.90;;;;;;5051212;28;20172;-83
2023/12/20 07:28:58;;;;;;;5.43;3.73;;;3.80;99.90;;;;;;5051044;28;20597;-83
2023/12/20 07:31:24;;;;;;;5.30;3.43;;;3.70;99.90;;;;;;5050908;28;20175;-82
2023/12/20 07:33:49;;;;;;;6.53;3.30;;;3.70;99.90;;;;;;5052487;28;20650;-82
2023/12/20 07:36:15;;;;;;;5.87;3.33;;;3.80;99.90;;;;;;5051954;28;20173;-83
2023/12/20 07:38:41;;;;;;;5.40;3.10;;;3.80;99.90;;;;;;5051044;28;20194;-83
2023/12/20 07:41:10;;;;;;;6.73;3.50;;;3.90;99.90;;;;;;5050953;28;20176;-83
2023/12/20 07:43:35;;;;;;;5.83;3.17;;;3.90;99.90;;;;;;5051087;28;20206;-84
2023/12/20 07:46:06;;;;;;;5.43;3.50;;;3.80;99.90;;;;;;5051043;28;20171;-83
2023/12/20 07:48:31;;;;;;;6.30;3.40;;;3.90;99.90;;;;;;5052222;28;20170;-83
2023/12/20 07:50:57;;;;;;;7.13;3.63;;;3.90;99.90;;;;;;5050733;28;20669;-83
2023/12/20 07:53:22;;;;;;;5.90;3.10;;;4.00;99.90;;;;;;5052228;28;20175;-83
2023/12/20 07:55:48;;;;;;;6.17;3.23;;;4.00;99.90;;;;;;5052170;28;20179;-83
2023/12/20 07:58:14;;;;;;;5.97;3.10;;;4.00;99.90;;;;;;5052596;28;20637;-82
2023/12/20 08:00:39;;;;;;;6.07;2.93;;;4.00;99.90;;;;;;5051609;28;20198;-83
2023/12/20 08:03:05;;;;;;;3.73;2.60;;;4.00;99.90;;;;;;5052068;28;20203;-83
2023/12/20 08:05:30;;;;;;;5.13;3.23;;;4.00;99.90;;;;;;5051842;28;20263;-82
2023/12/20 08:07:56;;;;;;;6.57;3.10;;;4.00;99.90;;;;;;5050822;28;20173;-83
2023/12/20 08:10:21;;;;;;;5.57;3.67;;;4.00;99.90;;;;;;5050575;28;20186;-82
2023/12/20 08:12:47;;;;;;;5.17;3.33;;;4.00;99.90;;;;;;5050862;28;20178;-82
2023/12/20 08:15:13;;;;;;;7.17;3.90;;;4.00;99.90;;;;;;5051909;28;20187;-83
2023/12/20 08:17:38;;;;;;;6.23;4.10;;;4.00;99.90;;;;;;5053098;28;20184;-82
2023/12/20 08:20:04;;;;;;;11.10;5.37;;;4.10;99.90;;;;;;5051875;28;20195;-83
2023/12/20 08:22:30;;;;;;;7.13;4.13;;;4.10;99.90;;;;;;5051613;28;20202;-83
2023/12/20 08:24:55;;;;;;;4.93;3.97;;;4.00;99.90;;;;;;5051870;28;20190;-83
2023/12/20 08:27:21;;;;;;;6.03;3.40;;;4.10;99.90;;;;;;5051245;28;20249;-83
2023/12/20 08:29:47;;;;;;;6.07;3.30;;;4.10;99.90;;;;;;5053975;28;20187;-83
2023/12/20 08:32:12;;;;;;;7.00;4.17;;;4.10;99.90;;;;;;5055446;28;20199;-82
2023/12/20 08:34:38;;;;;;;6.47;3.63;;;4.10;99.90;;;;;;5054158;28;20258;-82
2023/12/20 08:37:03;;;;;;;5.13;3.90;;;4.20;99.90;;;;;;5055163;28;20650;-83
2023/12/20 08:39:29;;;;;;;6.27;3.10;;;4.20;99.90;;;;;;5069286;22;20244;-83
2023/12/20 08:41:55;;;;;;;4.80;2.97;;;4.20;99.90;;;;;;5055441;28;20220;-85
2023/12/20 08:44:22;;;;;;;7.30;3.20;;;4.20;99.90;;;;;;5054471;28;20612;-85
2023/12/20 08:46:48;;;;;;;6.93;3.30;;;4.20;99.90;;;;;;5055627;28;20714;-84
2023/12/20 08:49:14;;;;;;;4.57;3.03;;;4.20;99.90;;;;;;5055545;28;20221;-86
2023/12/20 08:51:40;;;;;;;6.70;3.47;;;4.20;99.90;;;;;;5055946;28;20206;-86
2023/12/20 08:54:07;;;;;;;6.53;3.07;;;4.20;99.90;;;;;;5054203;28;20182;-84
2023/12/20 08:56:33;;;;;;;5.33;3.17;;;4.20;99.90;;;;;;5054209;28;20664;-85
2023/12/20 08:58:59;;;;;;;4.83;3.27;;;4.20;99.90;;;;;;5055176;28;20762;-85
2023/12/20 09:01:24;;;;;;;5.37;2.87;;;4.20;99.90;;;;;;5055389;28;20182;-84
2023/12/20 09:03:50;;;;;;;4.80;2.97;;;4.30;99.90;;;;;;5053717;28;20209;-85
2023/12/20 09:06:16;;;;;;;4.63;2.90;;;4.30;99.90;;;;;;5055097;28;20194;-86
2023/12/20 09:08:41;;;;;;;6.57;3.10;;;4.30;99.90;;;;;;5054000;28;20181;-85
2023/12/20 09:11:07;;;;;;;5.60;2.70;;;4.30;99.90;;;;;;5054022;28;20193;-84
2023/12/20 09:13:32;;;;;;;4.77;3.00;;;4.30;99.90;;;;;;5054040;28;20245;-85
2023/12/20 09:15:58;;;;;;;7.30;3.13;;;4.30;99.90;;;;;;5053726;28;20265;-85
2023/12/20 09:18:24;;;;;;;5.57;3.37;;;4.30;99.90;;;;;;5054930;28;20646;-85
2023/12/20 09:20:50;;;;;;;4.20;2.70;;;4.30;99.90;;;;;;5054803;28;20445;-84
2023/12/20 09:23:15;;;;;;;7.00;3.10;;;4.30;99.90;;;;;;5055271;28;20308;-85
2023/12/20 09:25:41;;;;;;;4.20;2.60;;;4.30;99.90;;;;;;5055345;28;20179;-84
2023/12/20 09:28:06;;;;;;;8.27;2.70;;;4.40;99.90;;;;;;5054767;28;20180;-85
2023/12/20 09:30:32;;;;;;;6.37;2.43;;;4.30;99.90;;;;;;5054845;28;20566;-85
2023/12/20 09:32:58;;;;;;;7.87;2.87;;;4.40;99.90;;;;;;5054719;28;20228;-85
2023/12/20 09:35:24;;;;;;;5.23;2.50;;;4.40;99.90;;;;;;5053419;28;20531;-85
2023/12/20 09:37:49;;;;;;;5.73;2.57;;;4.50;99.90;;;;;;5054652;28;20648;-85
2023/12/20 09:40:18;;;;;;;7.47;3.60;;;4.50;99.90;;;;;;5052903;28;20214;-84
2023/12/20 09:43:10;;;;;;;6.73;2.40;;;4.50;99.90;;;;;;5053288;28;20212;-84
2023/12/20 09:45:36;;;;;;;5.97;2.70;;;4.60;99.90;;;;;;5054441;28;20179;-84
2023/12/20 09:48:04;;;;;;;5.60;2.47;;;4.60;99.90;;;;;;5054574;28;20186;-85
2023/12/20 09:50:32;;;;;;;7.50;2.70;;;4.60;99.90;;;;;;5054477;28;20205;-84
2023/12/20 09:52:59;;;;;;;8.07;2.83;;;4.60;99.90;;;;;;5054445;28;20656;-84
2023/12/20 09:55:25;;;;;;;6.27;2.33;;;4.60;99.90;;;;;;5053280;28;20188;-83
2023/12/20 09:57:51;;;;;;;7.33;2.93;;;4.50;99.90;;;;;;5054281;28;20647;-84
2023/12/20 10:00:17;;;;;;;5.83;2.50;;;4.60;99.90;;;;;;5052968;28;20578;-84
2023/12/20 10:02:50;;;;;;;7.97;2.90;;;4.60;99.90;;;;;;5052901;28;20295;-85
2023/12/20 10:05:20;;;;;;;5.80;2.73;;;4.50;99.90;;;;;;5054303;28;20198;-85
2023/12/20 10:07:46;;;;;;;4.50;2.80;;;4.50;99.90;;;;;;5054486;28;20185;-85
2023/12/20 10:10:13;;;;;;;6.97;3.17;;;4.50;99.90;;;;;;5054093;28;20193;-85
2023/12/20 10:12:39;;;;;;;6.87;3.00;;;4.50;99.90;;;;;;5053835;28;20184;-84
2023/12/20 10:15:06;;;;;;;7.97;3.00;;;4.60;99.90;;;;;;5054124;28;20197;-85
2023/12/20 10:17:31;;;;;;;5.63;2.83;;;4.60;99.90;;;;;;5052696;28;20185;-85
2023/12/20 10:19:58;;;;;;;4.27;2.47;;;4.60;99.90;;;;;;5052206;28;20199;-84
2023/12/20 10:22:24;;;;;;;6.40;2.87;;;4.60;99.90;;;;;;5052605;28;20203;-84
2023/12/20 10:24:49;;;;;;;4.60;2.87;;;4.60;99.90;;;;;;5053879;28;20179;-84
2023/12/20 10:27:19;;;;;;;6.63;3.00;;;4.50;99.90;;;;;;5053522;28;20203;-85
2023/12/20 10:29:44;;;;;;;7.33;3.10;;;4.60;99.90;;;;;;5052278;28;20204;-84
2023/12/20 10:32:24;;;;;;;8.00;3.10;;;4.60;99.90;;;;;;5053592;28;20182;-85
2023/12/20 10:34:50;;;;;;;5.67;2.83;;;4.70;99.90;;;;;;5053593;28;20177;-84
2023/12/20 10:37:17;;;;;;;5.60;3.00;;;4.80;99.90;;;;;;5052317;28;20206;-84
2023/12/20 10:39:43;;;;;;;5.30;2.97;;;4.80;99.90;;;;;;5053106;28;20208;-84
2023/12/20 10:42:13;;;;;;;5.03;2.57;;;4.80;99.90;;;;;;5052629;28;20265;-85
2023/12/20 10:44:39;;;;;;;6.43;2.90;;;4.80;99.90;;;;;;5052336;28;20179;-85
2023/12/20 10:47:06;;;;;;;5.33;2.63;;;4.70;99.90;;;;;;5053651;28;20261;-86
2023/12/20 10:49:36;;;;;;;7.37;3.27;;;4.70;99.90;;;;;;5053122;28;20560;-83
2023/12/20 10:52:03;;;;;;;4.83;2.90;;;4.70;99.90;;;;;;5052006;28;20698;-85
2023/12/20 10:54:29;;;;;;;6.57;2.90;;;4.60;99.90;;;;;;5051951;28;20179;-84
2023/12/20 10:56:58;;;;;;;7.10;3.27;;;4.70;99.90;;;;;;5053457;28;20170;-86
2023/12/20 10:59:24;;;;;;;7.87;3.60;;;4.70;99.90;;;;;;5053008;28;20190;-85
2023/12/20 11:01:51;;;;;;;8.60;4.53;;;4.60;99.90;;;;;;5053305;28;20703;-85
2023/12/20 11:04:27;;;;;;;5.03;3.00;;;4.60;99.90;;;;;;5051913;28;20208;-86
2023/12/20 11:07:03;;;;;;;4.40;2.53;;;4.60;99.90;;;;;;5051890;28;20175;-85
2023/12/20 11:09:35;;;;;;;8.77;2.57;;;4.70;99.90;;;;;;5052895;28;20191;-85
2023/12/20 11:12:28;;;;;;;4.90;2.90;;;4.70;99.90;;;;;;5053093;28;20175;-85
2023/12/20 11:14:57;;;;;;;3.93;2.90;;;4.70;99.90;;;;;;5052038;28;20186;-85
2023/12/20 11:17:23;;;;;;;5.30;2.93;;;4.80;99.90;;;;;;5051627;28;20271;-85
2023/12/20 11:19:52;;;;;;;6.07;2.83;;;4.80;99.90;;;;;;5051409;28;20192;-84
2023/12/20 11:22:19;;;;;;;6.20;2.67;;;4.80;99.90;;;;;;5052824;28;20216;-87
2023/12/20 11:24:46;;;;;;;5.03;2.90;;;4.80;99.90;;;;;;5053037;28;20179;-85
2023/12/20 11:27:13;;;;;;;3.70;2.20;;;4.80;99.90;;;;;;5051847;28;20176;-85
2023/12/20 11:29:39;;;;;;;3.50;2.33;;;4.80;99.90;;;;;;5052593;28;20191;-85
2023/12/20 11:32:25;;;;;;;4.87;3.00;;;4.80;99.90;;;;;;5052749;28;20200;-84
2023/12/20 11:34:53;;;;;;;7.53;3.73;;;4.80;99.90;;;;;;5039319;28;20178;-84
2023/12/20 11:37:20;;;;;;;8.57;4.30;;;4.70;99.90;;;;;;5052085;28;20296;-85
2023/12/20 11:39:53;;;;;;;7.10;3.50;;;4.70;99.90;;;;;;5051585;28;20575;-85
2023/12/20 11:42:20;;;;;;;8.23;3.53;;;4.70;99.90;;;;;;5051822;28;20210;-85
2023/12/20 11:44:46;;;;;;;8.23;3.50;;;4.70;99.90;;;;;;5053325;28;20255;-85
2023/12/20 11:47:13;;;;;;;5.93;3.33;;;4.70;99.90;;;;;;5053093;28;20205;-85
2023/12/20 11:49:39;;;;;;;6.07;3.70;;;4.70;99.90;;;;;;5051947;28;20191;-85
2023/12/20 11:52:05;;;;;;;5.40;2.97;;;4.70;99.90;;;;;;5051960;28;20172;-85
2023/12/20 11:54:30;;;;;;;8.20;3.40;;;4.70;99.90;;;;;;5052693;28;20178;-86
2023/12/20 11:56:56;;;;;;;5.40;2.67;;;4.70;99.90;;;;;;5053027;28;20248;-86
2023/12/20 11:59:22;;;;;;;6.77;2.70;;;4.70;99.90;;;;;;5052590;28;20197;-87
2023/12/20 12:01:49;;;;;;;10.77;2.97;;;4.70;99.90;;;;;;5052681;28;20608;-86
2023/12/20 12:04:15;;;;;;;4.63;2.23;;;4.70;99.90;;;;;;5055989;28;20210;-87
2023/12/20 12:06:41;;;;;;;5.47;2.73;;;4.80;99.90;;;;;;5056998;28;20181;-86
2023/12/20 12:09:07;;;;;;;6.87;2.60;;;4.90;99.90;;;;;;5055452;28;20191;-85
2023/12/20 12:11:33;;;;;;;7.37;2.50;;;4.90;99.90;;;;;;5056523;28;20267;-85
2023/12/20 12:13:58;;;;;;;6.37;2.40;;;4.90;99.90;;;;;;5055557;28;20218;-84
2023/12/20 12:16:25;;;;;;;6.77;2.40;;;4.90;99.90;;;;;;5055315;28;20175;-85
2023/12/20 12:18:57;;;;;;;5.07;2.40;;;4.90;99.90;;;;;;5054892;28;20208;-84
2023/12/20 12:21:24;;;;;;;5.00;2.50;;;4.90;99.90;;;;;;5056056;28;20172;-86
2023/12/20 12:23:49;;;;;;;6.10;2.93;;;4.90;99.90;;;;;;5055050;28;20206;-85
2023/12/20 12:26:15;;;;;;;4.67;2.40;;;4.90;99.90;;;;;;5055462;28;20179;-84
2023/12/20 12:28:42;;;;;;;5.77;2.37;;;4.90;99.90;;;;;;5055159;28;20167;-85
2023/12/20 12:31:08;;;;;;;6.43;2.70;;;4.90;99.90;;;;;;5056171;28;20703;-86
2023/12/20 12:33:34;;;;;;;9.30;3.00;;;4.90;99.90;;;;;;5055931;28;20178;-85
2023/12/20 12:36:05;;;;;;;6.17;2.50;;;4.90;99.90;;;;;;5055330;28;20178;-86
2023/12/20 12:38:30;;;;;;;3.73;2.60;;;5.00;99.90;;;;;;5054089;28;20655;-86
2023/12/20 12:40:56;;;;;;;8.70;3.10;;;5.00;99.90;;;;;;5053884;28;20211;-86
2023/12/20 12:43:22;;;;;;;5.73;2.57;;;5.10;99.90;;;;;;5054657;28;20689;-86
2023/12/20 12:45:48;;;;;;;8.47;3.20;;;5.00;99.90;;;;;;5054284;28;20170;-83
2023/12/20 12:48:14;;;;;;;11.37;2.40;;;5.10;99.90;;;;;;5055424;28;20206;-85
2023/12/20 12:50:40;;;;;;;5.97;2.67;;;5.30;99.90;;;;;;5053913;28;20231;-85
2023/12/20 12:53:06;;;;;;;5.50;2.60;;;5.30;99.90;;;;;;5053811;28;20539;-83